Time;durP1;ratioP1;P1;durP2;ratioP2;P2;SDS_P1;SDS_P2;PMS_P1;PMS_P2;Temp;Humidity;BMP_temperature;BMP_pressure;BME280_temperature;BME280_humidity;BME280_pressure;Samples;Min_cycle;Max_cycle;Signal;HPM_P1;HPM_P2
2023/07/25 00:00:34;;;;;;;8.90;4.32;;;;;;;;;;5075825;28;20382;-78
2023/07/25 00:03:00;;;;;;;11.70;3.80;;;;;;;;;;5075651;28;20048;-79
2023/07/25 00:05:26;;;;;;;14.98;3.90;;;;;;;;;;5073811;28;20083;-79
2023/07/25 00:07:52;;;;;;;8.80;3.92;;;;;;;;;;5072847;28;20044;-79
2023/07/25 00:10:19;;;;;;;11.73;3.78;;;;;;;;;;5074866;28;20033;-79
2023/07/25 00:12:52;;;;;;;12.07;3.95;;;;;;;;;;5075048;28;20044;-79
2023/07/25 00:15:19;;;;;;;8.82;3.80;;;;;;;;;;5075597;28;20432;-79
2023/07/25 00:17:45;;;;;;;12.32;4.20;;;;;;;;;;5073482;28;20476;-79
2023/07/25 00:20:11;;;;;;;7.13;3.60;;;;;;;;;;5073530;28;20086;-79
2023/07/25 00:22:38;;;;;;;9.70;3.60;;;;;;;;;;5073737;28;20477;-80
2023/07/25 00:25:04;;;;;;;11.98;3.83;;;;;;;;;;5073609;28;20393;-80
2023/07/25 00:27:30;;;;;;;11.23;3.80;;;;;;;;;;5074312;28;20441;-79
2023/07/25 00:29:56;;;;;;;11.95;4.20;;;;;;;;;;5072975;28;20117;-79
2023/07/25 00:32:22;;;;;;;11.68;3.83;;;;;;;;;;5074049;28;20054;-79
2023/07/25 00:34:52;;;;;;;12.57;4.28;;;;;;;;;;5072895;28;20459;-79
2023/07/25 00:37:18;;;;;;;12.02;3.75;;;;;;;;;;5074713;28;20051;-79
2023/07/25 00:39:44;;;;;;;16.10;4.40;;;;;;;;;;5082670;28;20075;-78
2023/07/25 00:42:10;;;;;;;11.18;4.40;;;;;;;;;;5093518;28;20047;-79
2023/07/25 00:44:36;;;;;;;10.45;3.97;;;;;;;;;;5082365;28;20531;-79
2023/07/25 00:47:02;;;;;;;10.98;3.90;;;;;;;;;;5095043;28;20087;-79
2023/07/25 00:49:29;;;;;;;9.10;3.67;;;;;;;;;;5076687;28;20500;-79
2023/07/25 00:51:55;;;;;;;11.52;4.07;;;;;;;;;;5095226;28;20048;-79
2023/07/25 00:54:21;;;;;;;10.82;3.90;;;;;;;;;;5094969;28;20489;-79
2023/07/25 00:56:47;;;;;;;12.20;4.03;;;;;;;;;;5094483;28;20040;-79
2023/07/25 00:59:13;;;;;;;11.07;4.15;;;;;;;;;;5094291;28;20386;-79
2023/07/25 01:01:39;;;;;;;9.93;3.85;;;;;;;;;;5076374;28;20040;-79
2023/07/25 01:04:06;;;;;;;12.82;3.90;;;;;;;;;;5094601;28;20411;-78
2023/07/25 01:06:33;;;;;;;10.05;4.40;;;;;;;;;;5094300;28;20044;-78
2023/07/25 01:08:59;;;;;;;11.68;4.20;;;;;;;;;;5093560;28;20546;-79
2023/07/25 01:11:25;;;;;;;11.18;4.22;;;;;;;;;;5075640;28;20080;-79
2023/07/25 01:13:51;;;;;;;9.20;3.83;;;;;;;;;;5075578;28;20055;-79
2023/07/25 01:16:19;;;;;;;12.15;3.80;;;;;;;;;;5075722;28;20122;-79
2023/07/25 01:18:45;;;;;;;7.60;3.70;;;;;;;;;;5075506;28;20091;-79
2023/07/25 01:21:12;;;;;;;9.57;3.90;;;;;;;;;;5094019;28;20040;-78
2023/07/25 01:23:38;;;;;;;10.98;4.20;;;;;;;;;;5070590;28;20150;-78
2023/07/25 01:26:04;;;;;;;10.50;4.03;;;;;;;;;;5074790;28;20063;-80
2023/07/25 01:28:30;;;;;;;11.07;3.92;;;;;;;;;;5093265;28;20481;-80
2023/07/25 01:30:57;;;;;;;13.90;3.72;;;;;;;;;;5093167;28;20040;-80
2023/07/25 01:33:23;;;;;;;10.68;4.00;;;;;;;;;;5074886;28;20048;-80
2023/07/25 01:35:50;;;;;;;10.60;4.22;;;;;;;;;;5074975;28;20033;-80
2023/07/25 01:38:16;;;;;;;11.75;4.15;;;;;;;;;;5092997;28;20048;-80
2023/07/25 01:40:42;;;;;;;10.15;4.07;;;;;;;;;;5093220;28;20173;-80
2023/07/25 01:43:09;;;;;;;12.18;4.30;;;;;;;;;;5104336;28;20161;-80
2023/07/25 01:45:35;;;;;;;12.80;3.70;;;;;;;;;;5114060;28;20051;-79
2023/07/25 01:48:01;;;;;;;13.27;3.95;;;;;;;;;;5078368;28;20059;-79
2023/07/25 01:50:27;;;;;;;6.38;3.70;;;;;;;;;;5093477;28;20051;-80
2023/07/25 01:52:54;;;;;;;11.40;4.00;;;;;;;;;;5093453;28;20043;-79
2023/07/25 01:55:20;;;;;;;12.18;4.22;;;;;;;;;;5074941;28;20101;-80
2023/07/25 01:57:46;;;;;;;13.55;3.88;;;;;;;;;;5075732;28;20384;-79
2023/07/25 02:00:12;;;;;;;9.95;3.85;;;;;;;;;;5111016;28;20134;-80
2023/07/25 02:02:38;;;;;;;11.55;3.85;;;;;;;;;;5097592;28;20374;-79
2023/07/25 02:05:05;;;;;;;11.90;4.15;;;;;;;;;;5074688;28;20042;-79
2023/07/25 02:07:31;;;;;;;12.40;3.90;;;;;;;;;;5093247;28;20454;-79
2023/07/25 02:09:57;;;;;;;12.30;4.07;;;;;;;;;;5091780;28;20086;-79
2023/07/25 02:12:23;;;;;;;10.95;3.90;;;;;;;;;;5074677;28;20051;-79
2023/07/25 02:14:50;;;;;;;10.85;3.83;;;;;;;;;;5093166;28;20052;-79
2023/07/25 02:17:19;;;;;;;10.85;3.90;;;;;;;;;;5093668;28;20035;-80
2023/07/25 02:19:45;;;;;;;9.15;3.88;;;;;;;;;;5093714;28;20121;-79
2023/07/25 02:22:12;;;;;;;15.00;4.65;;;;;;;;;;5093319;28;20089;-79
2023/07/25 02:24:38;;;;;;;10.68;3.92;;;;;;;;;;5089453;28;20071;-75
2023/07/25 02:27:04;;;;;;;16.60;4.00;;;;;;;;;;5104248;28;20059;-76
2023/07/25 02:29:31;;;;;;;9.82;3.63;;;;;;;;;;5094608;28;20039;-79
2023/07/25 02:31:57;;;;;;;9.68;4.22;;;;;;;;;;5097826;28;20047;-80
2023/07/25 02:34:23;;;;;;;15.30;4.35;;;;;;;;;;5100028;28;20052;-77
2023/07/25 02:36:49;;;;;;;14.75;4.30;;;;;;;;;;5098381;28;20064;-78
2023/07/25 02:39:15;;;;;;;11.60;4.13;;;;;;;;;;5099899;28;20552;-78
2023/07/25 02:41:41;;;;;;;11.30;4.20;;;;;;;;;;5081686;28;20040;-79
2023/07/25 02:44:08;;;;;;;13.13;4.35;;;;;;;;;;5081274;28;20410;-79
2023/07/25 02:46:35;;;;;;;10.93;4.43;;;;;;;;;;5099806;28;20052;-79
2023/07/25 02:49:01;;;;;;;16.25;4.57;;;;;;;;;;5082615;28;20079;-79
2023/07/25 02:51:27;;;;;;;11.75;3.80;;;;;;;;;;5100795;28;20051;-79
2023/07/25 02:53:53;;;;;;;10.60;3.97;;;;;;;;;;5100151;28;20036;-78
2023/07/25 02:56:21;;;;;;;10.60;3.60;;;;;;;;;;5103556;28;20052;-79
2023/07/25 02:58:47;;;;;;;14.20;4.05;;;;;;;;;;5101397;28;20051;-78
2023/07/25 03:01:14;;;;;;;15.90;3.85;;;;;;;;;;5097355;28;20051;-79
2023/07/25 03:03:40;;;;;;;9.55;3.65;;;;;;;;;;5099784;28;20042;-79
2023/07/25 03:06:06;;;;;;;10.18;3.85;;;;;;;;;;5099316;28;20051;-79
2023/07/25 03:08:32;;;;;;;13.05;3.78;;;;;;;;;;5098978;28;20108;-79
2023/07/25 03:10:58;;;;;;;10.50;3.63;;;;;;;;;;5064594;28;20044;-79
2023/07/25 03:13:24;;;;;;;8.55;3.47;;;;;;;;;;5099201;28;20115;-78
2023/07/25 03:15:50;;;;;;;11.40;3.80;;;;;;;;;;5081368;28;20130;-79
2023/07/25 03:18:16;;;;;;;13.35;3.75;;;;;;;;;;5098742;28;20046;-79
2023/07/25 03:20:44;;;;;;;11.98;3.97;;;;;;;;;;5079142;28;20064;-79
2023/07/25 03:23:10;;;;;;;10.98;3.78;;;;;;;;;;5097276;28;20054;-78
2023/07/25 03:25:36;;;;;;;10.90;3.88;;;;;;;;;;5098910;28;20484;-78
2023/07/25 03:28:02;;;;;;;9.65;3.88;;;;;;;;;;5081341;28;20048;-79
2023/07/25 03:30:28;;;;;;;9.15;3.63;;;;;;;;;;5080443;28;20055;-77
2023/07/25 03:32:54;;;;;;;8.48;3.80;;;;;;;;;;5081367;28;20078;-78
2023/07/25 03:35:23;;;;;;;12.40;3.90;;;;;;;;;;5098958;28;20095;-78
2023/07/25 03:37:49;;;;;;;11.88;3.67;;;;;;;;;;5081127;28;20032;-80
2023/07/25 03:40:15;;;;;;;11.93;3.88;;;;;;;;;;5099123;28;20449;-78
2023/07/25 03:42:41;;;;;;;12.70;4.00;;;;;;;;;;5114062;28;20164;-79
2023/07/25 03:45:08;;;;;;;10.25;3.88;;;;;;;;;;5112753;28;20055;-79
2023/07/25 03:47:34;;;;;;;12.85;3.90;;;;;;;;;;5096130;28;20051;-79
2023/07/25 03:50:00;;;;;;;10.90;4.47;;;;;;;;;;5095409;28;20083;-79
2023/07/25 03:52:27;;;;;;;14.38;4.00;;;;;;;;;;5077737;28;20481;-78
2023/07/25 03:54:53;;;;;;;11.55;4.47;;;;;;;;;;5095628;28;20048;-78
2023/07/25 03:57:22;;;;;;;9.75;3.70;;;;;;;;;;5077423;28;20407;-79
2023/07/25 03:59:48;;;;;;;14.43;4.00;;;;;;;;;;5095670;28;20040;-78
2023/07/25 04:02:14;;;;;;;17.58;4.38;;;;;;;;;;5059496;28;20512;-79
2023/07/25 04:04:40;;;;;;;13.70;4.15;;;;;;;;;;5092584;28;20036;-79
2023/07/25 04:07:06;;;;;;;11.77;4.07;;;;;;;;;;5095404;28;20071;-80
2023/07/25 04:09:32;;;;;;;10.38;3.97;;;;;;;;;;5095498;28;20566;-80
2023/07/25 04:11:58;;;;;;;16.25;4.53;;;;;;;;;;5095555;28;20047;-77
2023/07/25 04:14:25;;;;;;;14.45;3.85;;;;;;;;;;5093082;28;20403;-78
2023/07/25 04:16:51;;;;;;;10.80;4.32;;;;;;;;;;5094832;28;20047;-78
2023/07/25 04:19:17;;;;;;;11.68;4.03;;;;;;;;;;5095224;28;20412;-78
2023/07/25 04:21:43;;;;;;;11.43;4.03;;;;;;;;;;5076777;28;20036;-78
2023/07/25 04:24:09;;;;;;;11.02;3.80;;;;;;;;;;5057443;28;20127;-79
2023/07/25 04:26:35;;;;;;;15.63;4.55;;;;;;;;;;5076976;28;20048;-79
2023/07/25 04:29:01;;;;;;;14.88;4.88;;;;;;;;;;5076099;28;20052;-80
2023/07/25 04:31:30;;;;;;;11.13;3.75;;;;;;;;;;5095273;28;20054;-79
2023/07/25 04:33:56;;;;;;;11.25;3.50;;;;;;;;;;5094216;28;20047;-79
2023/07/25 04:36:24;;;;;;;12.65;3.40;;;;;;;;;;5076846;28;20401;-78
2023/07/25 04:38:51;;;;;;;8.52;3.22;;;;;;;;;;5094586;28;20076;-79
2023/07/25 04:41:17;;;;;;;12.40;3.65;;;;;;;;;;5095197;28;20047;-79
2023/07/25 04:43:43;;;;;;;11.82;3.95;;;;;;;;;;5094706;28;20032;-79
2023/07/25 04:46:09;;;;;;;10.38;3.30;;;;;;;;;;5094316;28;20055;-79
2023/07/25 04:48:35;;;;;;;11.02;3.38;;;;;;;;;;5093875;28;20485;-79
2023/07/25 04:51:01;;;;;;;9.25;3.47;;;;;;;;;;5093872;28;20044;-80
2023/07/25 04:53:27;;;;;;;10.85;3.50;;;;;;;;;;5092279;28;20442;-80
2023/07/25 04:55:53;;;;;;;15.02;3.47;;;;;;;;;;5092384;28;20040;-78
2023/07/25 04:58:20;;;;;;;10.10;3.33;;;;;;;;;;5094285;28;20047;-79
2023/07/25 05:00:46;;;;;;;11.85;3.78;;;;;;;;;;5094318;28;20036;-79
2023/07/25 05:03:12;;;;;;;7.72;3.28;;;;;;;;;;5076296;28;20125;-79
2023/07/25 05:05:38;;;;;;;8.85;3.08;;;;;;;;;;5091450;28;20058;-79
2023/07/25 05:08:04;;;;;;;11.93;2.92;;;;;;;;;;5092355;28;20482;-79
2023/07/25 05:10:31;;;;;;;9.02;3.22;;;;;;;;;;5092659;28;20050;-79
2023/07/25 05:12:57;;;;;;;11.02;2.90;;;;;;;;;;5094450;28;20051;-80
2023/07/25 05:15:23;;;;;;;9.73;3.00;;;;;;;;;;5093716;28;20040;-78
2023/07/25 05:17:49;;;;;;;11.18;3.03;;;;;;;;;;5092743;28;20043;-79
2023/07/25 05:20:16;;;;;;;10.15;3.17;;;;;;;;;;5094374;28;20044;-78
2023/07/25 05:22:42;;;;;;;9.40;3.20;;;;;;;;;;5093917;28;20496;-78
2023/07/25 05:25:08;;;;;;;11.73;3.15;;;;;;;;;;5084014;28;20039;-79
2023/07/25 05:27:34;;;;;;;11.32;2.92;;;;;;;;;;5093039;28;20040;-80
2023/07/25 05:30:00;;;;;;;7.13;2.90;;;;;;;;;;5093789;28;20428;-79
2023/07/25 05:32:26;;;;;;;7.85;2.55;;;;;;;;;;5093950;28;20071;-79
2023/07/25 05:34:53;;;;;;;9.82;3.10;;;;;;;;;;5080298;28;20154;-79
2023/07/25 05:37:19;;;;;;;9.95;2.60;;;;;;;;;;5093563;28;20047;-75
2023/07/25 05:39:45;;;;;;;12.90;2.90;;;;;;;;;;5074626;28;20070;-75
2023/07/25 05:42:11;;;;;;;8.70;2.60;;;;;;;;;;5108988;28;20425;-76
2023/07/25 05:44:37;;;;;;;8.65;2.90;;;;;;;;;;5112398;28;20437;-75
2023/07/25 05:47:05;;;;;;;8.82;2.85;;;;;;;;;;5101968;28;20059;-74
2023/07/25 05:49:31;;;;;;;8.65;2.67;;;;;;;;;;5098603;28;20443;-76
2023/07/25 05:51:57;;;;;;;7.18;2.65;;;;;;;;;;5093484;28;20040;-75
2023/07/25 05:54:23;;;;;;;9.52;2.50;;;;;;;;;;5093067;28;20471;-76
2023/07/25 05:56:49;;;;;;;9.90;2.90;;;;;;;;;;5095139;28;20063;-76
2023/07/25 05:59:16;;;;;;;10.15;2.90;;;;;;;;;;5111409;28;20137;-75
2023/07/25 06:01:42;;;;;;;12.43;2.83;;;;;;;;;;5112459;28;20047;-76
2023/07/25 06:04:09;;;;;;;12.15;2.95;;;;;;;;;;5108136;28;20453;-77
2023/07/25 06:06:35;;;;;;;8.13;2.92;;;;;;;;;;5091575;28;20492;-77
2023/07/25 06:09:01;;;;;;;9.40;3.05;;;;;;;;;;5092158;28;20079;-77
2023/07/25 06:11:28;;;;;;;8.57;2.60;;;;;;;;;;5074628;28;20070;-77
2023/07/25 06:13:54;;;;;;;7.57;2.80;;;;;;;;;;5092240;28;20040;-76
2023/07/25 06:16:20;;;;;;;11.07;2.85;;;;;;;;;;5073911;28;20549;-77
2023/07/25 06:18:46;;;;;;;9.00;2.25;;;;;;;;;;5112070;28;20435;-76
2023/07/25 06:21:12;;;;;;;10.95;2.88;;;;;;;;;;5107652;28;20052;-76
2023/07/25 06:23:38;;;;;;;10.48;2.80;;;;;;;;;;5092260;28;20511;-77
2023/07/25 06:26:05;;;;;;;7.22;2.45;;;;;;;;;;5091998;28;20052;-77
2023/07/25 06:28:31;;;;;;;14.75;2.60;;;;;;;;;;5092262;28;20123;-75
2023/07/25 06:30:57;;;;;;;10.13;2.50;;;;;;;;;;5112602;28;20043;-77
2023/07/25 06:33:23;;;;;;;9.23;2.38;;;;;;;;;;5105789;28;20048;-76
2023/07/25 06:35:49;;;;;;;9.02;2.10;;;;;;;;;;5074228;28;20040;-75
2023/07/25 06:38:16;;;;;;;7.82;2.30;;;;;;;;;;5092385;28;20048;-75
2023/07/25 06:40:42;;;;;;;8.50;2.15;;;;;;;;;;5092755;28;20522;-76
2023/07/25 06:43:08;;;;;;;8.25;2.00;;;;;;;;;;5093173;28;20044;-76
2023/07/25 06:45:34;;;;;;;13.43;2.30;;;;;;;;;;5091342;28;20048;-76
2023/07/25 06:48:00;;;;;;;8.45;2.00;;;;;;;;;;5092325;28;20040;-75
2023/07/25 06:50:26;;;;;;;7.30;1.92;;;;;;;;;;5074572;28;20087;-77
2023/07/25 06:52:52;;;;;;;8.55;1.95;;;;;;;;;;5092348;28;20051;-76
2023/07/25 06:55:19;;;;;;;6.97;1.80;;;;;;;;;;5092084;28;20094;-76
2023/07/25 06:57:48;;;;;;;7.70;1.90;;;;;;;;;;5069116;28;20056;-76
2023/07/25 07:00:14;;;;;;;10.85;2.08;;;;;;;;;;5071780;28;20051;-77
2023/07/25 07:02:41;;;;;;;8.75;1.60;;;;;;;;;;5072484;28;20099;-76
2023/07/25 07:05:07;;;;;;;8.55;1.80;;;;;;;;;;5071302;28;20339;-76
2023/07/25 07:07:36;;;;;;;8.60;1.80;;;;;;;;;;5071621;28;20485;-75
2023/07/25 07:10:02;;;;;;;5.32;1.73;;;;;;;;;;5071097;28;20045;-75
2023/07/25 07:12:28;;;;;;;6.68;1.60;;;;;;;;;;5071146;28;20052;-75
2023/07/25 07:14:56;;;;;;;7.78;1.70;;;;;;;;;;5071215;28;20369;-75
2023/07/25 07:17:22;;;;;;;5.32;1.70;;;;;;;;;;5072342;28;20041;-75
2023/07/25 07:19:48;;;;;;;8.70;1.80;;;;;;;;;;5086717;28;20032;-75
2023/07/25 07:22:14;;;;;;;7.80;1.80;;;;;;;;;;5095538;28;20040;-75
2023/07/25 07:24:41;;;;;;;6.10;1.63;;;;;;;;;;5094041;28;20048;-75
2023/07/25 07:27:07;;;;;;;8.15;1.55;;;;;;;;;;5091771;28;20059;-75
2023/07/25 07:29:33;;;;;;;6.32;1.80;;;;;;;;;;5095128;28;20461;-77
2023/07/25 07:32:02;;;;;;;8.40;1.60;;;;;;;;;;5095184;28;20476;-77
2023/07/25 07:34:28;;;;;;;7.95;1.63;;;;;;;;;;5095525;28;20400;-76
2023/07/25 07:36:55;;;;;;;7.63;2.03;;;;;;;;;;5095544;28;20055;-75
2023/07/25 07:39:21;;;;;;;6.75;1.85;;;;;;;;;;5095421;28;20089;-75
2023/07/25 07:41:47;;;;;;;5.65;1.40;;;;;;;;;;5095337;28;20036;-76
2023/07/25 07:44:13;;;;;;;4.93;1.60;;;;;;;;;;5093377;28;20040;-76
2023/07/25 07:46:39;;;;;;;6.70;1.40;;;;;;;;;;5095177;28;20056;-75
2023/07/25 07:49:06;;;;;;;5.55;1.52;;;;;;;;;;5095261;28;20052;-76
2023/07/25 07:51:32;;;;;;;5.32;1.20;;;;;;;;;;5095480;28;20407;-76
2023/07/25 07:53:59;;;;;;;4.85;1.67;;;;;;;;;;5094616;28;20058;-76
2023/07/25 07:56:25;;;;;;;4.72;1.38;;;;;;;;;;5095293;28;20041;-77
2023/07/25 07:58:51;;;;;;;5.82;1.58;;;;;;;;;;5094899;28;20136;-74
2023/07/25 08:01:18;;;;;;;6.35;1.50;;;;;;;;;;5076587;28;20040;-76
2023/07/25 08:03:45;;;;;;;6.53;1.55;;;;;;;;;;5094654;28;20088;-75
2023/07/25 08:06:11;;;;;;;5.15;1.70;;;;;;;;;;5094725;28;20447;-76
2023/07/25 08:08:37;;;;;;;5.25;1.65;;;;;;;;;;5094680;28;20042;-76
2023/07/25 08:11:04;;;;;;;6.18;1.30;;;;;;;;;;5075867;28;20051;-77
2023/07/25 08:13:30;;;;;;;5.53;1.50;;;;;;;;;;5076675;28;20044;-75
2023/07/25 08:15:56;;;;;;;6.55;1.40;;;;;;;;;;5093280;28;20040;-75
2023/07/25 08:18:22;;;;;;;6.05;1.70;;;;;;;;;;5095110;28;20040;-75
2023/07/25 08:20:53;;;;;;;5.10;1.52;;;;;;;;;;5094695;28;20040;-74
2023/07/25 08:23:20;;;;;;;5.55;1.40;;;;;;;;;;5092877;28;20093;-75
2023/07/25 08:25:46;;;;;;;4.32;1.70;;;;;;;;;;5088785;28;20141;-75
2023/07/25 08:28:12;;;;;;;6.50;1.50;;;;;;;;;;5074025;28;20047;-76
2023/07/25 08:30:38;;;;;;;4.95;1.60;;;;;;;;;;5088062;28;20044;-74
2023/07/25 08:33:04;;;;;;;6.63;1.65;;;;;;;;;;5113254;28;20047;-76
2023/07/25 08:35:31;;;;;;;5.35;1.70;;;;;;;;;;5093189;28;20408;-75
2023/07/25 08:37:58;;;;;;;5.47;1.70;;;;;;;;;;5075018;28;20054;-75
2023/07/25 08:40:24;;;;;;;4.20;1.70;;;;;;;;;;5075879;28;20361;-75
2023/07/25 08:42:50;;;;;;;6.22;1.58;;;;;;;;;;5075767;28;20591;-75
2023/07/25 08:45:17;;;;;;;6.88;1.88;;;;;;;;;;5076340;28;20135;-75
2023/07/25 08:47:45;;;;;;;5.63;1.55;;;;;;;;;;5114268;28;20049;-74
2023/07/25 08:50:14;;;;;;;5.43;1.70;;;;;;;;;;5092778;28;20048;-75
2023/07/25 08:52:41;;;;;;;4.55;1.48;;;;;;;;;;5075008;28;20058;-75
2023/07/25 08:55:07;;;;;;;5.97;1.70;;;;;;;;;;5091666;28;20070;-74
2023/07/25 08:57:33;;;;;;;3.40;1.55;;;;;;;;;;5075363;28;20063;-75
2023/07/25 09:00:00;;;;;;;7.40;1.60;;;;;;;;;;5075313;28;20036;-74
2023/07/25 09:02:26;;;;;;;6.63;1.40;;;;;;;;;;5093948;28;20436;-74
2023/07/25 09:04:53;;;;;;;2.85;1.40;;;;;;;;;;5100377;28;20044;-73
2023/07/25 09:07:19;;;;;;;6.00;1.67;;;;;;;;;;5098267;28;20040;-73
2023/07/25 09:09:46;;;;;;;3.97;1.40;;;;;;;;;;5091455;28;20502;-75
2023/07/25 09:12:12;;;;;;;4.22;1.45;;;;;;;;;;5092045;28;20093;-75
2023/07/25 09:14:39;;;;;;;4.63;1.23;;;;;;;;;;5075198;28;20044;-75
2023/07/25 09:17:06;;;;;;;4.82;1.50;;;;;;;;;;5093582;28;20051;-75
2023/07/25 09:19:32;;;;;;;5.32;1.42;;;;;;;;;;5075311;28;20047;-74
2023/07/25 09:21:59;;;;;;;5.68;1.60;;;;;;;;;;5093532;28;20051;-75
2023/07/25 09:24:38;;;;;;;5.68;1.52;;;;;;;;;;5070904;28;20044;-76
2023/07/25 09:27:05;;;;;;;2.80;1.25;;;;;;;;;;5071021;28;20048;-75
2023/07/25 09:29:31;;;;;;;3.45;1.15;;;;;;;;;;5072764;28;20040;-75
2023/07/25 09:31:57;;;;;;;7.10;1.50;;;;;;;;;;5073162;28;20044;-75
2023/07/25 09:34:25;;;;;;;5.10;1.60;;;;;;;;;;5071379;28;20080;-75
2023/07/25 09:36:51;;;;;;;8.00;1.85;;;;;;;;;;5072633;28;20072;-74
2023/07/25 09:39:18;;;;;;;5.35;1.50;;;;;;;;;;5071458;28;20040;-75
2023/07/25 09:41:45;;;;;;;7.68;1.40;;;;;;;;;;5071854;28;20057;-75
2023/07/25 09:44:11;;;;;;;4.53;1.50;;;;;;;;;;5072744;28;20059;-75
2023/07/25 09:46:38;;;;;;;5.13;1.70;;;;;;;;;;5072616;28;20052;-75
2023/07/25 09:49:04;;;;;;;6.85;1.60;;;;;;;;;;5072303;28;20052;-75
2023/07/25 09:51:31;;;;;;;6.72;1.70;;;;;;;;;;5090662;28;20040;-76
2023/07/25 09:53:57;;;;;;;5.88;1.70;;;;;;;;;;5101604;28;20040;-70
2023/07/25 09:56:24;;;;;;;6.18;1.63;;;;;;;;;;5095627;28;20043;-70
2023/07/25 09:58:51;;;;;;;6.10;1.52;;;;;;;;;;5074610;28;20378;-69
2023/07/25 10:01:17;;;;;;;6.13;1.42;;;;;;;;;;5092838;28;20119;-70
2023/07/25 10:03:43;;;;;;;4.97;1.40;;;;;;;;;;5090764;28;20048;-78
2023/07/25 10:06:10;;;;;;;6.30;1.75;;;;;;;;;;5089951;28;20052;-79
2023/07/25 10:08:40;;;;;;;6.38;1.52;;;;;;;;;;5072323;28;20098;-78
2023/07/25 10:11:06;;;;;;;5.00;1.52;;;;;;;;;;5090176;28;20047;-79
2023/07/25 10:13:35;;;;;;;6.75;1.65;;;;;;;;;;5089917;28;20051;-79
2023/07/25 10:16:02;;;;;;;8.95;1.92;;;;;;;;;;5090495;28;20048;-78
2023/07/25 10:18:28;;;;;;;6.60;1.90;;;;;;;;;;5089418;28;20163;-80
2023/07/25 10:20:55;;;;;;;6.32;1.60;;;;;;;;;;5091963;28;20044;-79
2023/07/25 10:23:29;;;;;;;5.80;1.50;;;;;;;;;;5088288;28;20048;-80
2023/07/25 10:25:55;;;;;;;4.40;1.50;;;;;;;;;;5074047;28;20127;-79
2023/07/25 10:28:24;;;;;;;7.07;1.30;;;;;;;;;;5091004;28;20050;-79
2023/07/25 10:30:52;;;;;;;3.80;1.50;;;;;;;;;;5070434;28;20041;-80
2023/07/25 10:33:18;;;;;;;4.45;1.80;;;;;;;;;;5052211;28;20055;-79
2023/07/25 10:35:49;;;;;;;4.32;1.40;;;;;;;;;;5073080;28;20473;-79
2023/07/25 10:38:21;;;;;;;5.50;1.52;;;;;;;;;;5072166;28;20523;-79
2023/07/25 10:41:13;;;;;;;3.75;1.30;;;;;;;;;;5073632;28;20055;-73
2023/07/25 10:43:45;;;;;;;3.97;1.40;;;;;;;;;;5068555;28;20055;-71
2023/07/25 10:46:21;;;;;;;6.88;1.50;;;;;;;;;;5071789;28;20064;-72
2023/07/25 10:48:52;;;;;;;4.32;1.35;;;;;;;;;;5071825;28;20445;-71
2023/07/25 10:51:18;;;;;;;7.25;1.38;;;;;;;;;;5071967;28;20520;-72
2023/07/25 10:54:03;;;;;;;4.03;1.50;;;;;;;;;;5094221;28;20361;-72
2023/07/25 10:56:30;;;;;;;5.07;1.50;;;;;;;;;;5095746;28;20109;-72
2023/07/25 10:59:09;;;;;;;3.95;1.48;;;;;;;;;;5077820;28;20497;-72
2023/07/25 11:01:46;;;;;;;6.55;1.77;;;;;;;;;;5096315;28;20048;-71
2023/07/25 11:04:24;;;;;;;5.40;1.42;;;;;;;;;;5093867;28;20071;-72
2023/07/25 11:06:51;;;;;;;6.15;1.42;;;;;;;;;;5096120;28;20445;-71
2023/07/25 11:09:18;;;;;;;5.30;1.50;;;;;;;;;;5095684;28;20119;-71
2023/07/25 11:11:45;;;;;;;7.95;1.60;;;;;;;;;;5095638;28;20048;-73
2023/07/25 11:14:15;;;;;;;5.68;1.70;;;;;;;;;;5095557;28;20036;-71
2023/07/25 11:16:42;;;;;;;4.78;1.40;;;;;;;;;;5095761;28;20047;-71
2023/07/25 11:19:11;;;;;;;4.80;1.50;;;;;;;;;;5076906;28;20130;-73
2023/07/25 11:21:39;;;;;;;4.55;1.45;;;;;;;;;;5095538;28;20127;-71
2023/07/25 11:24:06;;;;;;;4.07;1.27;;;;;;;;;;5094426;28;20097;-71
2023/07/25 11:26:32;;;;;;;4.63;1.40;;;;;;;;;;5089581;28;20098;-71
2023/07/25 11:29:05;;;;;;;4.10;1.50;;;;;;;;;;5094938;28;20499;-71
2023/07/25 11:31:31;;;;;;;5.10;1.40;;;;;;;;;;5095498;28;20040;-71
2023/07/25 11:33:57;;;;;;;4.22;1.30;;;;;;;;;;5079273;28;20032;-71
2023/07/25 11:36:23;;;;;;;4.70;1.45;;;;;;;;;;5096834;28;20039;-76
2023/07/25 11:38:49;;;;;;;4.13;1.30;;;;;;;;;;5075210;28;20071;-75
2023/07/25 11:41:16;;;;;;;7.28;1.50;;;;;;;;;;5094992;28;20048;-76
2023/07/25 11:43:42;;;;;;;7.90;1.50;;;;;;;;;;5095131;28;20040;-76
2023/07/25 11:46:09;;;;;;;6.20;1.23;;;;;;;;;;5095010;28;20412;-76
2023/07/25 11:48:35;;;;;;;3.85;1.27;;;;;;;;;;5095076;28;20044;-76
2023/07/25 11:51:01;;;;;;;4.78;1.42;;;;;;;;;;5077411;28;20447;-78
2023/07/25 11:53:29;;;;;;;5.40;1.40;;;;;;;;;;5095007;28;20047;-76
2023/07/25 11:55:55;;;;;;;5.97;1.40;;;;;;;;;;5094856;28;20052;-77
2023/07/25 11:58:22;;;;;;;4.25;1.45;;;;;;;;;;5094796;28;20048;-77
2023/07/25 12:00:54;;;;;;;3.35;1.30;;;;;;;;;;5076646;28;20055;-77
2023/07/25 12:03:21;;;;;;;4.20;1.30;;;;;;;;;;5093265;28;20052;-77
2023/07/25 12:05:52;;;;;;;3.47;1.30;;;;;;;;;;5059233;28;20048;-77
2023/07/25 12:08:35;;;;;;;4.43;1.30;;;;;;;;;;5094882;28;20075;-77
2023/07/25 12:11:02;;;;;;;6.53;1.77;;;;;;;;;;5094386;28;20389;-77
2023/07/25 12:13:28;;;;;;;4.53;1.20;;;;;;;;;;5094356;28;20135;-76
2023/07/25 12:15:56;;;;;;;4.50;1.40;;;;;;;;;;5076653;28;20527;-76
2023/07/25 12:18:25;;;;;;;4.03;1.40;;;;;;;;;;5094587;28;20055;-77
2023/07/25 12:20:51;;;;;;;5.90;1.40;;;;;;;;;;5093658;28;20093;-74
2023/07/25 12:23:17;;;;;;;5.90;1.40;;;;;;;;;;5092967;28;20059;-75
2023/07/25 12:25:43;;;;;;;4.13;1.25;;;;;;;;;;5096551;28;20036;-72
2023/07/25 12:28:10;;;;;;;5.00;1.30;;;;;;;;;;5098798;28;20032;-75
2023/07/25 12:30:36;;;;;;;5.43;1.35;;;;;;;;;;5092976;28;20451;-74
2023/07/25 12:33:02;;;;;;;4.95;1.40;;;;;;;;;;5093527;28;20036;-75
2023/07/25 12:35:28;;;;;;;4.65;1.30;;;;;;;;;;5093338;28;20032;-75
2023/07/25 12:37:54;;;;;;;3.25;1.20;;;;;;;;;;5093840;28;20047;-75
2023/07/25 12:40:20;;;;;;;4.10;1.20;;;;;;;;;;5075754;28;20387;-75
2023/07/25 12:42:46;;;;;;;3.25;1.25;;;;;;;;;;5093820;28;20118;-75
2023/07/25 12:45:12;;;;;;;2.78;1.20;;;;;;;;;;5088072;28;20040;-74
2023/07/25 12:47:38;;;;;;;3.70;1.30;;;;;;;;;;5093770;28;20101;-75
2023/07/25 12:50:05;;;;;;;4.30;1.52;;;;;;;;;;5075173;28;20048;-74
2023/07/25 12:52:31;;;;;;;6.32;1.42;;;;;;;;;;5075964;28;20316;-75
2023/07/25 12:54:57;;;;;;;4.07;1.40;;;;;;;;;;5092142;28;20040;-75
2023/07/25 12:57:23;;;;;;;5.93;1.48;;;;;;;;;;5075635;28;20626;-75
2023/07/25 12:59:49;;;;;;;7.15;1.63;;;;;;;;;;5093932;28;20048;-75
2023/07/25 13:02:16;;;;;;;4.78;1.27;;;;;;;;;;5093956;28;20149;-76
2023/07/25 13:04:42;;;;;;;4.28;1.50;;;;;;;;;;5093713;28;20055;-74
2023/07/25 13:07:08;;;;;;;6.10;1.75;;;;;;;;;;5093467;28;20050;-75
2023/07/25 13:09:34;;;;;;;5.15;1.30;;;;;;;;;;5093678;28;20117;-76
2023/07/25 13:12:00;;;;;;;4.68;1.48;;;;;;;;;;5093445;28;20090;-77
2023/07/25 13:14:26;;;;;;;3.95;1.42;;;;;;;;;;5093363;28;20105;-76
2023/07/25 13:16:52;;;;;;;4.70;1.55;;;;;;;;;;5092616;28;20063;-75
2023/07/25 13:19:19;;;;;;;3.42;1.23;;;;;;;;;;5092031;28;20059;-77
2023/07/25 13:21:45;;;;;;;4.50;1.60;;;;;;;;;;5074098;28;20113;-77
2023/07/25 13:24:11;;;;;;;2.67;1.20;;;;;;;;;;5069244;28;20142;-77
2023/07/25 13:26:37;;;;;;;5.05;1.13;;;;;;;;;;5074106;28;20052;-77
2023/07/25 13:29:04;;;;;;;5.15;1.38;;;;;;;;;;5074703;28;20445;-76
2023/07/25 13:31:30;;;;;;;2.50;1.10;;;;;;;;;;5091975;28;20488;-77
2023/07/25 13:33:57;;;;;;;5.68;1.38;;;;;;;;;;5091614;28;20454;-76
2023/07/25 13:36:23;;;;;;;2.95;1.20;;;;;;;;;;5092587;28;20047;-76
2023/07/25 13:38:49;;;;;;;4.32;1.15;;;;;;;;;;5074458;28;20051;-76
2023/07/25 13:41:15;;;;;;;2.42;1.23;;;;;;;;;;5093005;28;20036;-76
2023/07/25 13:43:41;;;;;;;2.63;1.20;;;;;;;;;;5092881;28;20044;-76
2023/07/25 13:46:07;;;;;;;4.70;1.13;;;;;;;;;;5092540;28;20051;-76
2023/07/25 13:48:34;;;;;;;4.55;1.20;;;;;;;;;;5093060;28;20051;-76
2023/07/25 13:51:00;;;;;;;6.07;1.58;;;;;;;;;;5092894;28;20040;-74
2023/07/25 13:53:26;;;;;;;3.45;1.35;;;;;;;;;;5074519;28;20093;-76
2023/07/25 13:55:52;;;;;;;6.30;1.42;;;;;;;;;;5092696;28;20127;-76
2023/07/25 13:58:18;;;;;;;3.47;1.40;;;;;;;;;;5093069;28;20083;-76
2023/07/25 14:00:44;;;;;;;4.90;1.77;;;;;;;;;;5093083;28;20412;-75
2023/07/25 14:03:10;;;;;;;3.55;1.50;;;;;;;;;;5093168;28;20116;-75
2023/07/25 14:05:36;;;;;;;3.75;1.42;;;;;;;;;;5092708;28;20140;-76
2023/07/25 14:08:07;;;;;;;5.32;1.30;;;;;;;;;;5092696;28;20094;-76
2023/07/25 14:10:33;;;;;;;2.85;1.27;;;;;;;;;;5074820;28;20113;-75
2023/07/25 14:12:59;;;;;;;3.97;1.48;;;;;;;;;;5074602;28;20044;-76
2023/07/25 14:15:26;;;;;;;3.80;1.40;;;;;;;;;;5092780;28;20092;-76
2023/07/25 14:17:52;;;;;;;7.07;1.70;;;;;;;;;;5093115;28;20087;-76
2023/07/25 14:20:18;;;;;;;4.50;1.50;;;;;;;;;;5092412;28;20514;-76
2023/07/25 14:22:44;;;;;;;3.78;1.60;;;;;;;;;;5093233;28;20135;-76
2023/07/25 14:25:10;;;;;;;4.80;1.65;;;;;;;;;;5057109;28;20073;-76
2023/07/25 14:27:36;;;;;;;6.20;1.50;;;;;;;;;;5070014;28;20044;-76
2023/07/25 14:30:04;;;;;;;7.25;1.50;;;;;;;;;;5052198;28;20393;-75
2023/07/25 14:32:30;;;;;;;5.97;1.70;;;;;;;;;;5071438;28;20045;-76
2023/07/25 14:34:56;;;;;;;3.50;1.23;;;;;;;;;;5054158;28;20049;-77